Time;durP1;ratioP1;P1;durP2;ratioP2;P2;SDS_P1;SDS_P2;PMS_P1;PMS_P2;Temp;Humidity;BMP_temperature;BMP_pressure;BME280_temperature;BME280_humidity;BME280_pressure;Samples;Min_cycle;Max_cycle;Signal;HPM_P1;HPM_P2
2022/01/16 00:01:24;;;;;;;51.50;32.92;;;;;;;9.26;62.08;101640.22;6123180;22;119906;-82
2022/01/16 00:04:10;;;;;;;49.60;31.45;;;;;;;9.37;62.53;101659.19;6098873;22;118484;-83
2022/01/16 00:06:46;;;;;;;41.20;28.80;;;;;;;9.17;62.31;101635.28;6099851;22;120446;-82
2022/01/16 00:09:34;;;;;;;40.40;27.58;;;;;;;9.09;62.15;101633.88;6102190;22;120101;-83
2022/01/16 00:12:05;;;;;;;40.42;26.88;;;;;;;9.14;62.56;101633.38;6123896;22;119174;-81
2022/01/16 00:14:35;;;;;;;41.55;28.45;;;;;;;9.10;62.48;101618.97;6123882;22;119320;-84
2022/01/16 00:17:01;;;;;;;43.45;28.80;;;;;;;9.33;62.90;101653.03;6096756;22;122905;-82
2022/01/16 00:19:50;;;;;;;44.45;26.70;;;;;;;9.19;62.91;101624.69;6034691;23;123889;-83
2022/01/16 00:22:25;;;;;;;46.05;28.65;;;;;;;9.36;63.04;101647.47;6025779;23;119311;-85
2022/01/16 00:24:51;;;;;;;41.70;26.93;;;;;;;9.47;62.63;101666.47;6006599;23;119206;-84
2022/01/16 00:27:27;;;;;;;;;;;;;;;;;;;;;
2022/01/16 00:29:56;;;;;;;38.63;26.65;;;;;;;9.66;62.48;101700.56;6005494;23;122965;-84
2022/01/16 00:32:37;;;;;;;39.10;26.00;;;;;;;9.65;63.59;101691.56;6011230;22;118362;31
2022/01/16 00:35:17;;;;;;;;;;;;;;;;;;;;;
2022/01/16 00:37:43;;;;;;;36.70;25.08;;;;;;;9.16;62.81;101630.22;6089301;23;119084;-81
2022/01/16 00:40:10;;;;;;;42.13;26.88;;;;;;;9.14;62.48;101622.44;6042461;23;119624;-83
2022/01/16 00:42:37;;;;;;;38.08;25.40;;;;;;;9.53;62.81;101679.25;6086071;23;119595;-83
2022/01/16 00:45:06;;;;;;;38.78;26.05;;;;;;;9.33;63.02;101653.78;6114390;23;119958;-83
2022/01/16 00:47:38;;;;;;;38.25;26.10;;;;;;;9.19;62.58;101611.00;6087019;23;119284;-83
2022/01/16 00:50:07;;;;;;;37.22;26.25;;;;;;;9.16;63.02;101605.59;6085339;23;120405;-82
2022/01/16 00:52:33;;;;;;;37.70;26.20;;;;;;;9.28;62.97;101609.69;6083849;23;119351;-81
2022/01/16 00:55:03;;;;;;;40.35;27.17;;;;;;;9.34;63.14;101606.06;6060616;23;121604;-82
2022/01/16 00:58:01;;;;;;;43.75;27.48;;;;;;;9.61;62.99;101641.53;6035735;22;123270;31
2022/01/16 01:00:31;;;;;;;41.03;28.00;;;;;;;9.07;63.02;101578.78;6007529;23;119181;-82
2022/01/16 01:02:56;;;;;;;44.78;28.98;;;;;;;9.14;63.35;101569.66;6006798;23;119170;-83
2022/01/16 01:05:22;;;;;;;43.00;28.98;;;;;;;9.31;63.03;101574.03;6007533;23;119224;-83
2022/01/16 01:07:48;;;;;;;44.05;29.38;;;;;;;9.43;63.31;101598.06;6011825;23;120290;-82
2022/01/16 01:10:18;;;;;;;48.40;30.75;;;;;;;9.19;62.80;101544.53;6006546;23;121995;-83
2022/01/16 01:12:54;;;;;;;48.42;30.85;;;;;;;9.21;63.49;101559.34;6031935;23;119067;-82
2022/01/16 01:15:40;;;;;;;47.13;31.33;;;;;;;9.24;63.43;101579.66;6032664;23;119031;-84
2022/01/16 01:18:08;;;;;;;47.65;32.40;;;;;;;9.40;63.56;101603.59;6007350;23;121532;-82
2022/01/16 01:20:47;;;;;;;46.92;31.45;;;;;;;9.20;63.68;101563.25;5983155;23;119050;-83
2022/01/16 01:23:26;;;;;;;54.63;34.28;;;;;;;9.13;63.73;101554.41;6031272;23;120966;-81
2022/01/16 01:25:54;;;;;;;58.45;35.15;;;;;;;9.35;64.34;101582.19;6030387;23;119319;-83
2022/01/16 01:28:21;;;;;;;56.60;34.15;;;;;;;9.40;64.80;101595.38;5981525;23;119123;-81
2022/01/16 01:30:47;;;;;;;54.08;35.28;;;;;;;9.38;64.50;101581.34;6006664;23;119269;-83
2022/01/16 01:33:19;;;;;;;57.85;37.45;;;;;;;9.23;64.37;101548.00;5978118;23;119716;-82
2022/01/16 01:35:54;;;;;;;58.17;38.05;;;;;;;9.31;63.66;101571.31;5980473;23;121815;-83
2022/01/16 01:38:22;;;;;;;58.10;38.45;;;;;;;9.25;63.83;101553.81;5977870;23;122775;-81
2022/01/16 01:40:49;;;;;;;56.35;37.15;;;;;;;9.60;64.73;101598.91;6022348;23;119711;-82
2022/01/16 01:51:26;;;;;;;65.22;42.92;;;;;;;9.49;63.77;101569.00;6031957;23;119643;-80
2022/01/16 01:53:55;;;;;;;64.97;41.50;;;;;;;9.85;63.44;101607.41;5984011;23;119836;-81
2022/01/16 01:56:23;;;;;;;72.95;44.88;;;;;;;9.72;63.44;101559.94;5959186;23;122313;-82
2022/01/16 01:58:50;;;;;;;70.40;44.75;;;;;;;9.62;63.19;101500.66;6028339;23;119850;-82
2022/01/16 02:01:16;;;;;;;77.68;47.05;;;;;;;9.33;63.21;101442.97;6008880;23;119247;-81
2022/01/16 02:06:09;;;;;;;86.97;52.55;;;;;;;9.34;63.73;101430.03;6060868;23;118997;-83
2022/01/16 02:08:46;;;;;;;;;;;;;;;;;;;;;
2022/01/16 02:11:16;;;;;;;104.88;59.13;;;;;;;9.35;64.23;101423.38;6038081;23;121019;-84
2022/01/16 02:14:12;;;;;;;100.63;57.25;;;;;;;9.65;64.12;101475.13;6016615;23;122848;-85
2022/01/16 02:36:33;;;;;;;58.55;41.45;;;;;;;10.02;64.60;101517.03;6038482;23;123055;-82
2022/01/16 02:39:09;;;;;;;68.82;42.38;;;;;;;9.76;63.55;101472.97;6068662;23;119016;-83
2022/01/16 02:41:45;;;;;;;61.58;42.60;;;;;;;9.63;63.60;101474.78;6039230;23;122968;-83
2022/01/16 02:44:31;;;;;;;62.78;41.35;;;;;;;9.58;63.74;101471.78;6038312;23;119080;-82
2022/01/16 02:47:02;;;;;;;59.88;41.03;;;;;;;9.40;63.81;101453.75;6063313;23;119758;-84
2022/01/16 02:49:40;;;;;;;64.38;43.17;;;;;;;9.35;63.98;101457.00;6013111;23;122850;-82
2022/01/16 02:52:13;;;;;;;57.92;41.03;;;;;;;9.85;64.60;101524.44;6014263;23;119344;-83
2022/01/16 02:54:43;;;;;;;55.55;39.72;;;;;;;9.34;64.68;101432.78;6062713;23;121081;-83
2022/01/16 02:57:12;;;;;;;58.47;41.35;;;;;;;9.30;64.47;101434.84;6013001;23;122953;-81
2022/01/16 02:59:50;;;;;;;54.88;39.38;;;;;;;9.29;64.22;101434.06;6013772;23;119280;-83
2022/01/16 03:02:23;;;;;;;57.28;39.45;;;;;;;9.29;64.43;101436.03;6041908;23;121948;-84
2022/01/16 03:05:00;;;;;;;56.78;39.03;;;;;;;9.62;65.16;101483.44;6063577;23;118413;-83
2022/01/16 03:07:28;;;;;;;50.55;36.30;;;;;;;9.34;64.95;101438.25;6094436;22;122027;-83
2022/01/16 03:10:32;;;;;;;52.53;35.53;;;;;;;9.60;64.90;101458.44;6124074;22;118792;-83
2022/01/16 03:12:51;;;;;;;48.05;34.65;;;;;;;9.41;65.07;101438.88;6070997;22;119643;-83
2022/01/16 03:15:23;;;;;;;49.92;34.08;;;;;;;9.59;65.13;101465.13;6123928;22;119113;-81
2022/01/16 03:23:17;;;;;;;48.60;34.10;;;;;;;9.68;64.40;101451.59;6068321;22;119351;-82
2022/01/16 03:25:46;;;;;;;49.80;33.75;;;;;;;9.51;65.07;101426.94;6073456;23;123371;-82
2022/01/16 03:28:19;;;;;;;50.95;35.17;;;;;;;9.56;64.26;101416.66;6068879;22;119109;-81
2022/01/16 03:30:48;;;;;;;48.42;34.17;;;;;;;10.07;64.39;101497.31;6019734;22;122992;-82
2022/01/16 03:33:14;;;;;;;50.35;34.42;;;;;;;9.82;64.38;101462.25;6044243;22;118905;-81
2022/01/16 03:35:42;;;;;;;53.33;34.47;;;;;;;9.83;64.42;101458.31;6044768;22;120772;-82
2022/01/16 03:38:10;;;;;;;53.20;33.83;;;;;;;9.85;64.38;101447.69;6043434;22;119974;-83
2022/01/16 03:40:36;;;;;;;53.83;34.05;;;;;;;9.86;64.16;101446.50;6093838;22;119348;-81
2022/01/16 03:43:20;;;;;;;49.30;33.10;;;;;;;9.61;64.41;101403.22;6092899;22;118867;-81
2022/01/16 03:45:49;;;;;;;;;;;;;;;10.13;64.81;101465.44;6041953;23;120061;-82
2022/01/16 03:48:16;;;;;;;50.00;32.53;;;;;;;9.88;63.59;101410.44;6050954;23;119197;-84
2022/01/16 03:50:41;;;;;;;57.42;31.75;;;;;;;10.22;66.55;101446.47;6030332;23;121777;-82
2022/01/16 03:53:07;;;;;;;54.28;34.63;;;;;;;9.84;63.65;101383.91;6035015;23;119089;-83
2022/01/16 03:55:34;;;;;;;52.70;34.17;;;;;;;10.02;63.04;101404.63;6026785;23;121981;-82
2022/01/16 03:58:04;;;;;;;51.60;33.67;;;;;;;9.94;62.29;101397.78;6078074;23;122696;-82
2022/01/16 04:00:31;;;;;;;53.60;33.35;;;;;;;9.97;63.49;101397.72;6048496;23;119339;-81
2022/01/16 04:02:58;;;;;;;55.90;34.25;;;;;;;10.11;63.39;101413.78;6046226;23;121864;-83
2022/01/16 04:05:26;;;;;;;53.97;34.30;;;;;;;9.77;62.58;101356.69;6025355;23;123195;-83
2022/01/16 04:07:53;;;;;;;58.53;35.55;;;;;;;10.04;62.88;101396.75;6012864;23;119090;-82
2022/01/16 04:10:22;;;;;;;49.10;33.63;;;;;;;9.85;62.40;101374.47;6039013;23;123318;-83
2022/01/16 04:12:48;;;;;;;56.97;34.78;;;;;;;9.99;62.58;101386.31;6035312;23;119057;-82
2022/01/16 04:17:44;;;;;;;56.05;33.78;;;;;;;9.99;62.27;101387.09;6040849;23;122874;-83
2022/01/16 04:20:15;;;;;;;52.67;32.08;;;;;;;9.75;63.10;101353.59;6020341;23;119689;-82
2022/01/16 04:22:45;;;;;;;47.47;31.17;;;;;;;10.05;63.22;101390.84;6066121;23;118749;-81
2022/01/16 04:25:11;;;;;;;42.53;27.48;;;;;;;9.85;63.51;101360.78;6016411;23;122077;-81
2022/01/16 04:27:37;;;;;;;43.50;25.65;;;;;;;9.90;65.42;101362.22;6041931;23;119205;-84
2022/01/16 04:30:05;;;;;;;41.10;27.23;;;;;;;10.02;64.82;101367.03;6044435;23;122446;-84
2022/01/16 04:32:33;;;;;;;42.17;28.38;;;;;;;10.19;63.15;101384.25;6033747;23;119225;-83
2022/01/16 04:35:02;;;;;;;41.53;29.05;;;;;;;10.08;61.78;101368.06;6020756;23;122211;-84
2022/01/16 04:37:28;;;;;;;42.47;28.30;;;;;;;10.24;62.32;101381.00;6044422;23;118810;-84
2022/01/16 04:39:59;;;;;;;39.50;26.88;;;;;;;10.27;61.61;101379.38;6070511;23;118434;-84
2022/01/16 04:45:15;;;;;;;39.72;27.02;;;;;;;9.90;61.01;101325.84;6050728;23;121710;-83
2022/01/16 04:47:51;;;;;;;;;;;;;;;;;;;;;
2022/01/16 04:50:21;;;;;;;40.88;26.67;;;;;;;9.95;62.12;101341.78;6023675;23;122516;-86
2022/01/16 04:52:52;;;;;;;40.03;27.38;;;;;;;9.89;61.72;101333.28;6001056;23;123972;-83
2022/01/16 04:55:23;;;;;;;41.20;26.90;;;;;;;9.67;61.47;101302.13;6001949;23;122100;-83
2022/01/16 04:57:54;;;;;;;37.53;25.63;;;;;;;9.97;61.56;101344.88;6022259;23;122639;-82
2022/01/16 05:00:20;;;;;;;41.95;26.75;;;;;;;9.96;61.12;101355.06;6058016;23;119011;-84
2022/01/16 05:02:58;;;;;;;40.83;25.30;;;;;;;9.83;61.78;101326.78;6054578;23;119293;-82
2022/01/16 05:05:29;;;;;;;35.78;24.98;;;;;;;9.81;60.91;101320.97;6077713;23;123429;-83
2022/01/16 05:07:57;;;;;;;38.92;24.80;;;;;;;9.89;62.65;101330.56;6002379;23;119680;-83
2022/01/16 05:10:32;;;;;;;39.08;25.33;;;;;;;9.65;61.85;101288.88;6054607;23;121760;-81
2022/01/16 05:13:25;;;;;;;;;;;;;;;;;;;;;
2022/01/16 05:18:30;;;;;;;39.95;26.92;;;;;;;10.17;60.78;101359.22;6077940;23;122886;-85
2022/01/16 05:20:56;;;;;;;43.22;27.58;;;;;;;9.89;61.15;101305.88;6082356;23;119817;-82
2022/01/16 05:23:22;;;;;;;40.70;26.20;;;;;;;10.14;60.85;101341.66;6012236;23;122323;-83
2022/01/16 05:25:47;;;;;;;42.22;26.45;;;;;;;9.94;61.09;101315.59;6091028;22;119312;-82
2022/01/16 05:28:13;;;;;;;41.03;26.58;;;;;;;10.15;60.92;101328.72;6067712;22;118799;-82
2022/01/16 05:30:39;;;;;;;45.03;28.08;;;;;;;10.10;60.49;101316.31;6011845;23;122346;-84
2022/01/16 05:33:04;;;;;;;43.63;28.40;;;;;;;10.10;60.80;101318.28;6015153;23;121536;-83
2022/01/16 05:35:30;;;;;;;46.83;28.48;;;;;;;9.90;61.58;101279.25;6039193;23;118477;-81
2022/01/16 05:37:56;;;;;;;44.92;29.88;;;;;;;9.94;60.96;101288.94;6037860;23;120369;-82
2022/01/16 05:40:22;;;;;;;49.50;31.85;;;;;;;9.89;60.63;101277.72;6015354;23;118498;-82
2022/01/16 05:43:13;;;;;;;46.75;30.00;;;;;;;9.75;61.02;101246.75;6011533;23;119837;-81
2022/01/16 05:45:42;;;;;;;51.10;31.70;;;;;;;9.87;61.29;101263.69;6055243;23;122660;-82
2022/01/16 05:48:08;;;;;;;52.28;30.20;;;;;;;9.62;62.38;101215.78;6039893;23;119065;-82
2022/01/16 05:50:57;;;;;;;55.67;32.83;;;;;;;9.57;61.48;101202.59;6049717;23;118895;-82
2022/01/16 05:53:25;;;;;;;58.45;34.75;;;;;;;9.82;61.11;101257.53;6085569;23;122811;-82
2022/01/16 05:55:53;;;;;;;58.60;34.00;;;;;;;9.92;61.54;101254.94;6067887;22;119201;-82
2022/01/16 05:58:21;;;;;;;64.13;37.15;;;;;;;9.55;61.37;101194.06;6066906;23;119771;-81
2022/01/16 06:00:52;;;;;;;61.63;35.67;;;;;;;9.70;61.08;101232.78;6045153;23;122071;-82
2022/01/16 06:03:26;;;;;;;62.03;35.25;;;;;;;9.88;61.52;101259.72;6007338;23;122045;-82
2022/01/16 06:05:51;;;;;;;58.60;35.35;;;;;;;9.76;61.38;101242.03;6039257;23;123264;-80
2022/01/16 06:08:19;;;;;;;65.30;36.55;;;;;;;9.99;61.57;101261.00;6066512;23;118448;-81
2022/01/16 06:10:47;;;;;;;67.65;37.97;;;;;;;9.66;61.13;101204.72;6092368;22;119071;-82
2022/01/16 06:13:15;;;;;;;69.22;39.05;;;;;;;9.80;60.95;101220.81;6089714;22;122089;-83
2022/01/16 06:15:46;;;;;;;67.50;39.33;;;;;;;9.84;61.04;101219.50;6091931;22;119287;-83
2022/01/16 06:18:16;;;;;;;75.30;40.08;;;;;;;10.04;61.22;101260.47;6066033;23;118946;-85
2022/01/16 06:20:42;;;;;;;75.22;41.72;;;;;;;10.08;61.70;101268.59;6092736;23;123068;-83
2022/01/16 06:23:14;;;;;;;76.63;41.63;;;;;;;9.95;61.07;101243.13;6040595;23;121979;-83
2022/01/16 06:25:44;;;;;;;76.75;40.95;;;;;;;9.95;61.75;101243.13;6088271;22;119385;-82
2022/01/16 06:28:12;;;;;;;78.65;40.60;;;;;;;9.93;62.08;101235.31;6067870;22;118543;-83
2022/01/16 06:30:40;;;;;;;82.10;42.08;;;;;;;9.64;61.93;101191.47;6039815;23;118438;-82
2022/01/16 06:33:09;;;;;;;78.80;40.83;;;;;;;10.01;62.32;101247.66;6039648;23;121988;-82
2022/01/16 06:35:35;;;;;;;78.97;41.25;;;;;;;9.82;62.32;101204.69;6016307;23;119667;-82
2022/01/16 06:38:09;;;;;;;80.03;42.97;;;;;;;9.85;62.46;101206.56;6036007;23;121587;-81
2022/01/16 06:40:37;;;;;;;78.07;41.13;;;;;;;9.92;62.77;101220.06;6037126;23;118581;-82
2022/01/16 06:43:02;;;;;;;81.35;42.70;;;;;;;9.88;62.38;101219.41;6020481;23;118610;-81
2022/01/16 06:45:31;;;;;;;81.50;42.75;;;;;;;9.84;62.55;101207.78;6065196;23;122265;-83
2022/01/16 06:47:56;;;;;;;75.20;41.08;;;;;;;10.04;63.28;101235.03;6017098;23;118522;-81
2022/01/16 06:50:22;;;;;;;78.38;41.17;;;;;;;10.08;62.18;101257.63;6016230;23;120528;-81
2022/01/16 06:52:47;;;;;;;82.20;41.40;;;;;;;9.94;62.49;101233.38;6067891;22;118953;-82
2022/01/16 06:55:16;;;;;;;72.47;38.42;;;;;;;9.91;62.83;101234.97;6022368;23;118523;-83
2022/01/16 06:57:41;;;;;;;70.43;35.47;;;;;;;9.96;65.11;101259.13;6069553;23;118979;-82
2022/01/16 07:00:08;;;;;;;67.25;37.20;;;;;;;9.91;64.41;101248.69;6044186;23;121429;-82
2022/01/16 07:02:38;;;;;;;67.22;38.40;;;;;;;9.60;63.18;101215.44;6069796;22;118573;-82
2022/01/16 07:05:17;;;;;;;71.57;37.58;;;;;;;9.61;64.27;101213.47;6072920;23;122007;-86
2022/01/16 07:07:58;;;;;;;74.65;40.10;;;;;;;9.59;63.46;101219.38;6093749;22;118346;-83
2022/01/16 07:10:24;;;;;;;70.57;37.97;;;;;;;9.96;63.84;101274.81;6068672;22;119239;-82
2022/01/16 07:12:57;;;;;;;76.15;40.17;;;;;;;9.59;63.19;101224.09;6090938;22;122460;-83
2022/01/16 07:15:25;;;;;;;74.47;39.95;;;;;;;9.78;63.32;101256.84;6094384;22;119801;-82
2022/01/16 07:17:55;;;;;;;87.70;42.15;;;;;;;9.80;62.95;101254.44;6069637;22;121802;-83
2022/01/16 07:20:23;;;;;;;79.32;42.65;;;;;;;9.69;62.98;101242.97;6019497;23;121899;-83
2022/01/16 07:23:53;;;;;;;82.80;41.38;;;;;;;9.92;63.41;101279.59;6066887;23;119751;-84
2022/01/16 07:26:22;;;;;;;84.15;40.65;;;;;;;9.68;63.44;101241.44;6094053;22;119452;-83
2022/01/16 07:28:51;;;;;;;80.25;41.10;;;;;;;9.49;63.88;101212.22;6048027;22;122874;-83
2022/01/16 07:31:17;;;;;;;82.50;40.83;;;;;;;9.36;65.18;101186.72;6043887;23;122178;-83
2022/01/16 07:33:45;;;;;;;77.35;38.80;;;;;;;9.60;64.39;101223.66;6068509;23;119917;-82
2022/01/16 07:36:13;;;;;;;78.93;39.95;;;;;;;9.52;63.82;101212.13;6093098;22;119337;-82
2022/01/16 07:38:42;;;;;;;76.28;38.97;;;;;;;9.29;63.91;101178.69;6069772;23;119539;-83
2022/01/16 07:41:12;;;;;;;72.13;36.85;;;;;;;9.46;63.83;101207.56;6093248;23;119527;-82
2022/01/16 07:43:41;;;;;;;76.38;38.13;;;;;;;9.63;64.92;101228.28;6044524;23;119067;-83
2022/01/16 07:46:10;;;;;;;73.07;35.83;;;;;;;9.54;64.82;101206.22;6020730;23;121033;-83
2022/01/16 07:48:39;;;;;;;71.88;35.13;;;;;;;9.42;64.41;101193.97;6043356;22;122655;-82
2022/01/16 07:51:22;;;;;;;65.53;34.28;;;;;;;9.48;64.78;101205.97;6098546;22;118478;-81
2022/01/16 07:53:55;;;;;;;65.53;33.38;;;;;;;9.82;64.13;101252.03;6092217;22;120017;-83
2022/01/16 07:56:23;;;;;;;64.60;32.63;;;;;;;9.72;65.18;101227.69;6093288;22;118517;-84
2022/01/16 07:58:54;;;;;;;65.70;33.22;;;;;;;9.60;64.88;101200.97;6020790;22;121675;-82
2022/01/16 08:01:32;;;;;;;65.93;32.53;;;;;;;10.06;64.29;101265.53;6070842;22;122949;-84
2022/01/16 08:03:58;;;;;;;62.75;32.15;;;;;;;9.69;63.81;101212.06;6068392;23;119105;-84
2022/01/16 08:06:46;;;;;;;69.53;34.15;;;;;;;9.63;64.05;101211.06;6051831;23;119106;-83
2022/01/16 08:09:18;;;;;;;63.33;32.30;;;;;;;9.87;64.66;101241.75;6065837;23;122983;-84
2022/01/16 08:11:52;;;;;;;67.03;34.00;;;;;;;10.12;64.39;101277.50;6016733;23;119324;-82
2022/01/16 08:14:23;;;;;;;66.55;33.90;;;;;;;9.66;64.10;101208.22;6016029;23;121554;-83
2022/01/16 08:16:56;;;;;;;64.93;33.97;;;;;;;10.00;63.98;101243.38;6091526;22;118523;-81
2022/01/16 08:19:34;;;;;;;;;;;;;;;;;;;;;
2022/01/16 08:22:06;;;;;;;72.25;34.55;;;;;;;9.54;64.92;101182.34;6030915;23;123622;-81
2022/01/16 08:24:52;;;;;;;69.60;34.38;;;;;;;9.92;64.39;101235.75;6031480;23;118651;-83
2022/01/16 08:27:18;;;;;;;76.05;34.03;;;;;;;9.88;67.46;101229.59;6081405;22;121668;-83
2022/01/16 08:29:48;;;;;;;71.32;34.67;;;;;;;9.87;65.83;101215.13;6055134;23;120343;-81
2022/01/16 08:32:20;;;;;;;77.60;36.30;;;;;;;10.13;64.87;101255.13;6033970;23;118575;-82
2022/01/16 08:34:48;;;;;;;75.38;36.72;;;;;;;10.21;64.72;101271.44;6030124;23;121625;-83
2022/01/16 08:37:16;;;;;;;79.30;37.90;;;;;;;9.83;64.14;101212.47;6046534;23;119489;-84
2022/01/16 08:39:44;;;;;;;84.18;38.67;;;;;;;10.03;64.92;101238.97;6023422;23;119311;-84
2022/01/16 08:42:20;;;;;;;84.55;39.28;;;;;;;9.95;65.70;101216.50;5997522;23;122885;-84
2022/01/16 08:44:54;;;;;;;77.72;39.25;;;;;;;9.95;64.82;101199.28;6019393;23;119272;-84
2022/01/16 08:47:22;;;;;;;82.32;39.90;;;;;;;10.34;65.42;101242.06;6020751;23;122079;-86
2022/01/16 08:49:53;;;;;;;84.97;39.20;;;;;;;9.92;65.46;101175.47;6017065;23;122955;-82
2022/01/16 08:52:22;;;;;;;73.97;37.55;;;;;;;10.41;65.15;101239.91;6042895;23;119452;-85
2022/01/16 08:54:58;;;;;;;;;;;;;;;;;;;;;
2022/01/16 08:57:27;;;;;;;88.22;41.35;;;;;;;9.99;63.90;101172.53;6045733;23;119967;-84
2022/01/16 08:59:58;;;;;;;90.45;42.35;;;;;;;10.27;65.30;101215.63;6042361;23;119459;-84
2022/01/16 09:02:26;;;;;;;90.10;44.88;;;;;;;10.00;64.10;101174.06;6016565;23;123321;-85
2022/01/16 09:04:55;;;;;;;85.93;43.70;;;;;;;10.02;64.13;101177.91;6042791;23;119460;-86
2022/01/16 09:07:23;;;;;;;121.95;50.28;;;;;;;10.08;66.01;101187.13;6044360;23;119193;-84
2022/01/16 09:09:49;;;;;;;97.82;46.90;;;;;;;10.10;64.57;101201.19;5996360;23;123062;-85
2022/01/16 09:12:17;;;;;;;96.53;46.10;;;;;;;10.05;64.67;101187.25;6018439;23;119184;-84
2022/01/16 09:14:45;;;;;;;112.07;47.60;;;;;;;10.01;66.34;101167.41;6068014;23;119946;-86
2022/01/16 09:17:14;;;;;;;109.05;49.70;;;;;;;10.20;65.59;101190.38;6015418;23;123330;-87
2022/01/16 09:19:42;;;;;;;111.28;52.58;;;;;;;10.25;65.16;101204.34;6045824;23;118569;-86
2022/01/16 09:22:08;;;;;;;100.95;48.90;;;;;;;10.48;64.65;101229.94;6037710;23;119852;-82
2022/01/16 09:24:34;;;;;;;104.68;49.78;;;;;;;10.39;64.40;101214.88;6040238;23;119349;-87
2022/01/16 09:27:00;;;;;;;109.63;51.63;;;;;;;10.30;65.59;101209.28;5991946;23;120098;-87
2022/01/16 09:29:26;;;;;;;102.80;49.72;;;;;;;10.35;64.53;101211.47;6014795;23;121438;-85
2022/01/16 09:31:52;;;;;;;105.45;49.88;;;;;;;10.54;63.98;101222.69;6015415;23;119519;-84
2022/01/16 09:34:19;;;;;;;107.25;51.70;;;;;;;10.47;64.09;101228.41;6039189;23;119928;-84
2022/01/16 09:36:44;;;;;;;108.47;51.80;;;;;;;10.56;64.33;101242.22;6063996;23;119930;-84
2022/01/16 09:39:11;;;;;;;113.60;50.45;;;;;;;10.60;65.62;101232.69;6038861;23;119739;-85
2022/01/16 09:41:36;;;;;;;106.10;48.78;;;;;;;10.57;66.07;101235.53;6017417;23;121847;-85
2022/01/16 09:44:04;;;;;;;104.10;48.58;;;;;;;10.63;64.95;101236.53;6013452;23;119556;-83
2022/01/16 09:46:30;;;;;;;100.40;48.13;;;;;;;10.60;64.52;101237.41;6038047;23;119662;-86
2022/01/16 09:48:56;;;;;;;100.93;47.97;;;;;;;10.58;64.13;101237.06;5989037;23;123135;-86
2022/01/16 09:51:21;;;;;;;105.28;48.10;;;;;;;10.47;63.95;101225.66;6014240;23;119285;-83
2022/01/16 09:53:47;;;;;;;106.13;49.22;;;;;;;10.60;64.57;101240.16;6064567;23;119691;-84
2022/01/16 09:56:13;;;;;;;107.00;50.78;;;;;;;10.60;65.37;101237.41;6063718;23;120103;-86
2022/01/16 09:58:41;;;;;;;107.75;49.85;;;;;;;10.62;64.96;101241.25;6014099;23;119943;-86
2022/01/16 10:01:10;;;;;;;112.25;50.50;;;;;;;10.65;64.97;101247.88;6038859;23;119525;-85
2022/01/16 10:03:45;;;;;;;120.65;52.08;;;;;;;10.67;66.57;101234.47;5993607;23;122753;-86
2022/01/16 10:06:17;;;;;;;129.07;55.20;;;;;;;10.81;66.57;101253.25;6062952;23;119719;-83
2022/01/16 10:08:44;;;;;;;112.32;52.35;;;;;;;10.70;65.52;101225.38;6037353;23;120021;-86
2022/01/16 10:11:36;;;;;;;112.65;51.60;;;;;;;10.91;65.26;101241.19;6037818;23;120247;-87
2022/01/16 10:14:24;;;;;;;114.88;53.15;;;;;;;10.92;64.82;101242.72;6061287;23;119638;-86
2022/01/16 10:16:49;;;;;;;116.80;55.00;;;;;;;10.81;64.07;101234.03;6036300;23;121651;-85
2022/01/16 10:19:22;;;;;;;119.10;53.13;;;;;;;10.98;65.90;101240.19;6063898;23;119348;-86
2022/01/16 10:21:49;;;;;;;126.38;55.63;;;;;;;10.96;65.20;101240.63;6013426;23;119761;-85
2022/01/16 10:24:27;;;;;;;117.22;53.15;;;;;;;10.98;64.65;101235.47;6036490;23;119878;-83
2022/01/16 10:27:08;;;;;;;119.55;53.65;;;;;;;11.08;64.38;101242.59;6042733;23;119612;-86
2022/01/16 10:29:39;;;;;;;120.88;53.72;;;;;;;11.16;64.55;101242.41;6037453;23;119534;-86
2022/01/16 10:32:17;;;;;;;115.40;52.70;;;;;;;11.19;64.01;101223.06;5989135;23;119922;-85
2022/01/16 10:34:45;;;;;;;116.25;52.35;;;;;;;11.19;64.33;101220.31;5989195;23;122880;-85
2022/01/16 10:37:29;;;;;;;112.20;51.15;;;;;;;11.19;63.91;101208.56;6036869;23;120610;-86
2022/01/16 10:40:14;;;;;;;111.05;51.22;;;;;;;11.30;64.39;101228.19;6013410;23;119736;-85
2022/01/16 10:42:42;;;;;;;110.75;51.45;;;;;;;11.31;64.50;101210.50;6011905;23;121707;-86
2022/01/16 10:45:13;;;;;;;100.00;47.90;;;;;;;11.47;63.83;101218.63;6037312;23;120418;-85
2022/01/16 10:47:51;;;;;;;96.68;46.38;;;;;;;11.53;63.54;101218.81;6018602;23;119825;-87
2022/01/16 10:50:38;;;;;;;97.07;46.20;;;;;;;11.56;63.08;101215.94;6063648;23;120230;-85
2022/01/16 10:53:13;;;;;;;98.18;45.80;;;;;;;11.57;62.21;101208.47;6037009;23;119854;-87
2022/01/16 10:55:49;;;;;;;94.18;46.38;;;;;;;11.52;63.02;101201.56;6012868;23;120248;-84
2022/01/16 10:58:20;;;;;;;96.60;44.97;;;;;;;11.59;62.73;101215.06;6061328;23;123136;-85
2022/01/16 11:00:54;;;;;;;93.70;44.75;;;;;;;11.57;62.86;101202.97;6038054;23;119430;-86
2022/01/16 11:03:22;;;;;;;88.53;43.75;;;;;;;11.55;62.83;101200.66;5989143;23;122395;-85
2022/01/16 11:05:50;;;;;;;85.78;41.38;;;;;;;11.55;62.65;101206.16;6013118;23;123314;-88
2022/01/16 11:08:22;;;;;;;86.55;41.67;;;;;;;11.56;62.83;101204.19;6061911;23;120063;-87
2022/01/16 11:10:50;;;;;;;78.82;40.83;;;;;;;11.56;62.63;101210.44;6065968;23;121743;-84
2022/01/16 11:13:19;;;;;;;74.60;37.88;;;;;;;11.52;65.28;101200.78;6063297;23;119649;-87
2022/01/16 11:15:53;;;;;;;64.68;32.95;;;;;;;11.52;64.35;101182.31;6037519;23;121909;-84
2022/01/16 11:18:20;;;;;;;;;;;;;;;11.65;63.94;101216.03;6063751;23;120180;-86
2022/01/16 11:21:03;;;;;;;53.75;30.48;;;;;;;11.65;62.96;101210.53;6037704;23;119962;-86
2022/01/16 11:23:45;;;;;;;47.15;27.85;;;;;;;11.61;62.58;101209.13;6034078;23;119754;-83
2022/01/16 11:26:11;;;;;;;44.10;26.20;;;;;;;11.59;62.36;101209.59;6062296;23;123155;-86
2022/01/16 11:28:38;;;;;;;43.70;26.88;;;;;;;11.61;62.63;101217.38;5990927;23;119691;-84
2022/01/16 11:31:09;;;;;;;41.88;26.23;;;;;;;11.67;62.56;101224.59;5990220;23;121865;-86
2022/01/16 11:33:37;;;;;;;40.60;25.15;;;;;;;11.67;62.01;101221.09;6018207;23;122739;-87
2022/01/16 11:36:07;;;;;;;45.80;26.90;;;;;;;11.67;62.21;101224.59;6038293;23;121831;-83
2022/01/16 11:38:40;;;;;;;46.53;27.67;;;;;;;11.68;62.64;101220.66;5990108;23;122869;-85
2022/01/16 11:41:15;;;;;;;46.30;27.37;;;;;;;11.66;63.55;101209.34;6064845;23;120182;-86
2022/01/16 11:43:48;;;;;;;47.78;25.27;;;;;;;11.58;63.59;101182.53;6064526;23;119658;-85
2022/01/16 11:46:20;;;;;;;36.03;23.40;;;;;;;11.63;63.22;101187.47;6014306;23;122953;-86
2022/01/16 11:49:02;;;;;;;39.05;23.65;;;;;;;11.80;63.50;101199.06;6038527;23;119690;-86
2022/01/16 11:51:39;;;;;;;43.10;23.85;;;;;;;11.86;63.99;101200.06;6015044;23;122189;-86
2022/01/16 11:54:13;;;;;;;32.70;21.95;;;;;;;11.85;64.00;101190.28;6038120;23;120043;-86
2022/01/16 11:56:39;;;;;;;38.10;23.27;;;;;;;11.95;64.13;101200.88;6019790;23;119635;-87
2022/01/16 11:59:24;;;;;;;39.28;23.15;;;;;;;12.06;63.88;101200.50;5990181;23;123789;-86
2022/01/16 12:02:07;;;;;;;38.10;23.50;;;;;;;12.17;63.82;101200.13;5990927;23;119643;-86
2022/01/16 12:04:33;;;;;;;40.17;24.02;;;;;;;12.22;63.97;101192.06;6014770;23;123172;-86
2022/01/16 12:07:17;;;;;;;41.67;24.38;;;;;;;12.29;62.97;101200.03;6013969;23;123407;-85
2022/01/16 12:12:11;;;;;;;45.83;24.20;;;;;;;12.31;64.32;101188.63;6038385;23;121446;-84
2022/01/16 12:14:57;;;;;;;37.90;23.83;;;;;;;12.35;63.41;101180.22;6038565;23;119917;-85
2022/01/16 12:17:33;;;;;;;34.35;23.15;;;;;;;12.44;63.77;101181.03;6014875;23;119978;-84
2022/01/16 12:20:22;;;;;;;39.28;23.25;;;;;;;12.53;64.95;101180.28;6018603;23;119422;-85